sensor_id;sensor_type;location;lat;lon;timestamp;P1;durP1;ratioP1;P2;durP2;ratioP2
15114;SDS011;7658;51.456;7.622;2023-02-28T00:00:39;9.93;;;8.90;;
15114;SDS011;7658;51.456;7.622;2023-02-28T00:03:05;9.80;;;8.90;;
15114;SDS011;7658;51.456;7.622;2023-02-28T00:05:31;11.77;;;9.03;;
15114;SDS011;7658;51.456;7.622;2023-02-28T00:07:57;9.77;;;8.77;;
15114;SDS011;7658;51.456;7.622;2023-02-28T00:10:27;9.77;;;8.97;;
15114;SDS011;7658;51.456;7.622;2023-02-28T00:12:55;10.33;;;9.13;;
15114;SDS011;7658;51.456;7.622;2023-02-28T00:15:24;9.37;;;8.47;;
15114;SDS011;7658;51.456;7.622;2023-02-28T00:17:50;9.23;;;8.53;;
15114;SDS011;7658;51.456;7.622;2023-02-28T00:20:16;13.00;;;9.23;;
15114;SDS011;7658;51.456;7.622;2023-02-28T00:22:50;9.67;;;8.70;;
15114;SDS011;7658;51.456;7.622;2023-02-28T00:25:18;10.50;;;9.40;;
15114;SDS011;7658;51.456;7.622;2023-02-28T00:27:46;10.60;;;9.50;;
15114;SDS011;7658;51.456;7.622;2023-02-28T00:30:16;10.67;;;9.57;;
15114;SDS011;7658;51.456;7.622;2023-02-28T00:32:43;11.90;;;10.07;;
15114;SDS011;7658;51.456;7.622;2023-02-28T00:35:09;14.17;;;10.03;;
15114;SDS011;7658;51.456;7.622;2023-02-28T00:37:35;16.10;;;9.97;;
15114;SDS011;7658;51.456;7.622;2023-02-28T00:40:02;11.23;;;9.70;;
15114;SDS011;7658;51.456;7.622;2023-02-28T00:42:30;11.00;;;9.90;;
15114;SDS011;7658;51.456;7.622;2023-02-28T00:44:55;11.80;;;10.70;;
15114;SDS011;7658;51.456;7.622;2023-02-28T00:47:21;13.37;;;10.17;;
15114;SDS011;7658;51.456;7.622;2023-02-28T00:49:47;11.57;;;9.50;;
15114;SDS011;7658;51.456;7.622;2023-02-28T00:52:13;13.40;;;9.67;;
15114;SDS011;7658;51.456;7.622;2023-02-28T00:54:38;11.63;;;9.97;;
15114;SDS011;7658;51.456;7.622;2023-02-28T00:57:04;10.63;;;9.40;;
15114;SDS011;7658;51.456;7.622;2023-02-28T00:59:30;11.90;;;10.70;;
15114;SDS011;7658;51.456;7.622;2023-02-28T01:01:56;10.43;;;9.40;;
15114;SDS011;7658;51.456;7.622;2023-02-28T01:04:21;11.53;;;10.33;;
15114;SDS011;7658;51.456;7.622;2023-02-28T01:06:47;12.77;;;10.33;;
15114;SDS011;7658;51.456;7.622;2023-02-28T01:09:13;12.73;;;10.13;;
15114;SDS011;7658;51.456;7.622;2023-02-28T01:11:39;11.93;;;10.10;;
15114;SDS011;7658;51.456;7.622;2023-02-28T01:14:06;11.37;;;9.40;;
15114;SDS011;7658;51.456;7.622;2023-02-28T01:16:33;11.17;;;10.23;;
15114;SDS011;7658;51.456;7.622;2023-02-28T01:18:59;10.27;;;9.33;;
15114;SDS011;7658;51.456;7.622;2023-02-28T01:21:25;10.37;;;9.33;;
15114;SDS011;7658;51.456;7.622;2023-02-28T01:23:51;11.77;;;10.43;;
15114;SDS011;7658;51.456;7.622;2023-02-28T01:26:21;12.40;;;10.20;;
15114;SDS011;7658;51.456;7.622;2023-02-28T01:28:48;10.30;;;9.40;;
15114;SDS011;7658;51.456;7.622;2023-02-28T01:31:14;12.10;;;9.43;;
15114;SDS011;7658;51.456;7.622;2023-02-28T01:33:41;11.70;;;10.53;;
15114;SDS011;7658;51.456;7.622;2023-02-28T01:36:17;11.37;;;10.10;;
15114;SDS011;7658;51.456;7.622;2023-02-28T01:38:47;12.43;;;9.30;;
15114;SDS011;7658;51.456;7.622;2023-02-28T01:41:17;12.90;;;9.53;;
15114;SDS011;7658;51.456;7.622;2023-02-28T01:46:28;12.50;;;10.47;;
15114;SDS011;7658;51.456;7.622;2023-02-28T01:51:35;11.43;;;10.33;;
15114;SDS011;7658;51.456;7.622;2023-02-28T01:54:12;15.13;;;11.10;;
15114;SDS011;7658;51.456;7.622;2023-02-28T01:56:46;11.63;;;10.43;;
15114;SDS011;7658;51.456;7.622;2023-02-28T01:59:22;10.30;;;9.30;;
15114;SDS011;7658;51.456;7.622;2023-02-28T02:01:54;10.47;;;9.47;;
15114;SDS011;7658;51.456;7.622;2023-02-28T02:04:21;10.97;;;9.70;;
15114;SDS011;7658;51.456;7.622;2023-02-28T02:06:51;12.00;;;8.73;;
15114;SDS011;7658;51.456;7.622;2023-02-28T02:09:17;9.70;;;8.80;;
15114;SDS011;7658;51.456;7.622;2023-02-28T02:11:43;10.23;;;9.43;;
15114;SDS011;7658;51.456;7.622;2023-02-28T02:28:02;9.60;;;8.73;;
15114;SDS011;7658;51.456;7.622;2023-02-28T02:36:38;9.97;;;8.93;;
15114;SDS011;7658;51.456;7.622;2023-02-28T02:45:09;11.67;;;10.47;;
15114;SDS011;7658;51.456;7.622;2023-02-28T02:47:41;9.53;;;8.83;;
15114;SDS011;7658;51.456;7.622;2023-02-28T02:50:11;10.53;;;9.60;;
15114;SDS011;7658;51.456;7.622;2023-02-28T02:52:46;10.43;;;9.43;;
15114;SDS011;7658;51.456;7.622;2023-02-28T02:55:17;10.97;;;9.93;;
15114;SDS011;7658;51.456;7.622;2023-02-28T02:57:50;10.07;;;9.17;;
15114;SDS011;7658;51.456;7.622;2023-02-28T03:00:22;12.33;;;10.40;;
15114;SDS011;7658;51.456;7.622;2023-02-28T03:02:52;10.47;;;9.60;;
15114;SDS011;7658;51.456;7.622;2023-02-28T03:05:25;11.13;;;10.03;;
15114;SDS011;7658;51.456;7.622;2023-02-28T03:07:53;9.73;;;9.03;;
15114;SDS011;7658;51.456;7.622;2023-02-28T03:10:55;11.17;;;10.03;;
15114;SDS011;7658;51.456;7.622;2023-02-28T03:13:25;10.83;;;9.93;;
15114;SDS011;7658;51.456;7.622;2023-02-28T03:26:39;11.00;;;10.00;;
15114;SDS011;7658;51.456;7.622;2023-02-28T03:31:49;11.50;;;9.70;;
15114;SDS011;7658;51.456;7.622;2023-02-28T03:34:27;11.87;;;10.13;;
15114;SDS011;7658;51.456;7.622;2023-02-28T03:37:08;11.43;;;10.43;;
15114;SDS011;7658;51.456;7.622;2023-02-28T03:39:44;11.10;;;9.90;;
15114;SDS011;7658;51.456;7.622;2023-02-28T03:42:15;10.77;;;9.87;;
15114;SDS011;7658;51.456;7.622;2023-02-28T03:44:45;11.07;;;9.97;;
15114;SDS011;7658;51.456;7.622;2023-02-28T03:48:00;10.93;;;9.90;;
15114;SDS011;7658;51.456;7.622;2023-02-28T03:52:49;10.67;;;9.67;;
15114;SDS011;7658;51.456;7.622;2023-02-28T03:55:18;12.73;;;10.30;;
15114;SDS011;7658;51.456;7.622;2023-02-28T04:00:40;10.40;;;9.53;;
15114;SDS011;7658;51.456;7.622;2023-02-28T04:03:10;10.47;;;9.43;;
15114;SDS011;7658;51.456;7.622;2023-02-28T04:05:45;11.57;;;10.47;;
15114;SDS011;7658;51.456;7.622;2023-02-28T04:08:16;10.90;;;10.00;;
15114;SDS011;7658;51.456;7.622;2023-02-28T04:10:42;13.03;;;10.07;;
15114;SDS011;7658;51.456;7.622;2023-02-28T04:13:13;10.90;;;9.80;;
15114;SDS011;7658;51.456;7.622;2023-02-28T04:15:38;10.10;;;9.30;;
15114;SDS011;7658;51.456;7.622;2023-02-28T04:18:04;10.83;;;9.87;;
15114;SDS011;7658;51.456;7.622;2023-02-28T04:20:31;10.90;;;9.90;;
15114;SDS011;7658;51.456;7.622;2023-02-28T04:22:56;11.07;;;10.10;;
15114;SDS011;7658;51.456;7.622;2023-02-28T04:25:22;10.70;;;9.80;;
15114;SDS011;7658;51.456;7.622;2023-02-28T04:27:48;11.13;;;10.20;;
15114;SDS011;7658;51.456;7.622;2023-02-28T04:30:14;10.13;;;9.37;;
15114;SDS011;7658;51.456;7.622;2023-02-28T04:32:39;11.53;;;9.90;;
15114;SDS011;7658;51.456;7.622;2023-02-28T04:35:05;12.17;;;11.07;;
15114;SDS011;7658;51.456;7.622;2023-02-28T04:37:31;10.60;;;9.57;;
15114;SDS011;7658;51.456;7.622;2023-02-28T04:40:00;10.47;;;9.57;;
15114;SDS011;7658;51.456;7.622;2023-02-28T04:42:26;11.30;;;10.30;;
15114;SDS011;7658;51.456;7.622;2023-02-28T04:44:52;11.93;;;10.27;;
15114;SDS011;7658;51.456;7.622;2023-02-28T04:47:17;11.60;;;10.47;;
15114;SDS011;7658;51.456;7.622;2023-02-28T04:49:43;11.67;;;10.67;;
15114;SDS011;7658;51.456;7.622;2023-02-28T04:52:09;11.80;;;10.70;;
15114;SDS011;7658;51.456;7.622;2023-02-28T04:54:35;11.30;;;10.30;;
15114;SDS011;7658;51.456;7.622;2023-02-28T04:57:03;11.33;;;10.20;;
15114;SDS011;7658;51.456;7.622;2023-02-28T04:59:29;11.67;;;10.57;;
15114;SDS011;7658;51.456;7.622;2023-02-28T05:01:55;11.33;;;10.27;;
15114;SDS011;7658;51.456;7.622;2023-02-28T05:04:20;12.23;;;10.67;;
15114;SDS011;7658;51.456;7.622;2023-02-28T05:06:46;9.97;;;9.27;;
15114;SDS011;7658;51.456;7.622;2023-02-28T05:09:12;11.27;;;10.30;;
15114;SDS011;7658;51.456;7.622;2023-02-28T05:11:38;11.67;;;10.67;;
15114;SDS011;7658;51.456;7.622;2023-02-28T05:14:05;10.73;;;9.80;;
15114;SDS011;7658;51.456;7.622;2023-02-28T05:16:35;11.67;;;10.57;;
15114;SDS011;7658;51.456;7.622;2023-02-28T05:19:01;11.00;;;10.10;;
15114;SDS011;7658;51.456;7.622;2023-02-28T05:21:28;11.93;;;9.70;;
15114;SDS011;7658;51.456;7.622;2023-02-28T05:24:00;11.70;;;10.60;;
15114;SDS011;7658;51.456;7.622;2023-02-28T05:26:28;11.10;;;10.10;;
15114;SDS011;7658;51.456;7.622;2023-02-28T05:28:54;10.87;;;9.97;;
15114;SDS011;7658;51.456;7.622;2023-02-28T05:31:20;12.13;;;11.00;;
15114;SDS011;7658;51.456;7.622;2023-02-28T05:33:46;13.10;;;11.80;;
15114;SDS011;7658;51.456;7.622;2023-02-28T05:36:12;11.10;;;10.20;;
15114;SDS011;7658;51.456;7.622;2023-02-28T05:38:39;11.57;;;10.53;;
15114;SDS011;7658;51.456;7.622;2023-02-28T05:41:09;11.73;;;10.70;;
15114;SDS011;7658;51.456;7.622;2023-02-28T05:43:35;11.07;;;10.17;;
15114;SDS011;7658;51.456;7.622;2023-02-28T05:46:04;10.77;;;9.77;;
15114;SDS011;7658;51.456;7.622;2023-02-28T05:48:32;12.30;;;11.00;;
15114;SDS011;7658;51.456;7.622;2023-02-28T05:50:58;11.20;;;10.13;;
15114;SDS011;7658;51.456;7.622;2023-02-28T05:53:24;10.60;;;9.87;;
15114;SDS011;7658;51.456;7.622;2023-02-28T05:55:51;11.13;;;10.23;;
15114;SDS011;7658;51.456;7.622;2023-02-28T05:58:18;12.33;;;10.97;;
15114;SDS011;7658;51.456;7.622;2023-02-28T06:00:43;10.67;;;9.87;;
15114;SDS011;7658;51.456;7.622;2023-02-28T06:03:09;14.90;;;10.33;;
15114;SDS011;7658;51.456;7.622;2023-02-28T06:05:35;11.60;;;10.60;;
15114;SDS011;7658;51.456;7.622;2023-02-28T06:08:01;11.27;;;10.20;;
15114;SDS011;7658;51.456;7.622;2023-02-28T06:10:26;11.43;;;10.50;;
15114;SDS011;7658;51.456;7.622;2023-02-28T06:12:52;11.17;;;10.27;;
15114;SDS011;7658;51.456;7.622;2023-02-28T06:15:18;11.97;;;11.00;;
15114;SDS011;7658;51.456;7.622;2023-02-28T06:17:43;10.50;;;9.60;;
15114;SDS011;7658;51.456;7.622;2023-02-28T06:20:10;11.17;;;10.37;;
15114;SDS011;7658;51.456;7.622;2023-02-28T06:22:38;16.97;;;10.10;;
15114;SDS011;7658;51.456;7.622;2023-02-28T06:25:05;11.97;;;10.63;;
15114;SDS011;7658;51.456;7.622;2023-02-28T06:27:32;11.73;;;10.77;;
15114;SDS011;7658;51.456;7.622;2023-02-28T06:29:58;11.57;;;10.60;;
15114;SDS011;7658;51.456;7.622;2023-02-28T06:32:24;11.63;;;10.57;;
15114;SDS011;7658;51.456;7.622;2023-02-28T06:34:50;10.80;;;9.80;;
15114;SDS011;7658;51.456;7.622;2023-02-28T06:37:16;10.97;;;10.17;;
15114;SDS011;7658;51.456;7.622;2023-02-28T06:39:45;11.23;;;10.30;;
15114;SDS011;7658;51.456;7.622;2023-02-28T06:42:14;12.00;;;10.90;;
15114;SDS011;7658;51.456;7.622;2023-02-28T06:44:40;11.97;;;10.97;;
15114;SDS011;7658;51.456;7.622;2023-02-28T06:47:07;13.00;;;11.70;;
15114;SDS011;7658;51.456;7.622;2023-02-28T06:49:34;12.17;;;10.97;;
15114;SDS011;7658;51.456;7.622;2023-02-28T06:52:00;13.30;;;11.97;;
15114;SDS011;7658;51.456;7.622;2023-02-28T06:54:28;15.63;;;14.07;;
15114;SDS011;7658;51.456;7.622;2023-02-28T06:56:53;17.77;;;12.97;;
15114;SDS011;7658;51.456;7.622;2023-02-28T06:59:19;17.70;;;14.00;;
15114;SDS011;7658;51.456;7.622;2023-02-28T07:01:45;13.53;;;12.33;;
15114;SDS011;7658;51.456;7.622;2023-02-28T07:04:11;15.10;;;13.53;;
15114;SDS011;7658;51.456;7.622;2023-02-28T07:06:38;14.20;;;12.83;;
15114;SDS011;7658;51.456;7.622;2023-02-28T07:09:04;18.67;;;13.13;;
15114;SDS011;7658;51.456;7.622;2023-02-28T07:11:30;18.17;;;14.13;;
15114;SDS011;7658;51.456;7.622;2023-02-28T07:13:56;15.17;;;13.60;;
15114;SDS011;7658;51.456;7.622;2023-02-28T07:16:23;14.33;;;12.80;;
15114;SDS011;7658;51.456;7.622;2023-02-28T07:18:51;15.83;;;13.87;;
15114;SDS011;7658;51.456;7.622;2023-02-28T07:21:17;16.90;;;13.50;;
15114;SDS011;7658;51.456;7.622;2023-02-28T07:23:43;16.37;;;14.63;;
15114;SDS011;7658;51.456;7.622;2023-02-28T07:26:13;16.90;;;15.10;;
15114;SDS011;7658;51.456;7.622;2023-02-28T07:28:42;13.93;;;12.60;;
15114;SDS011;7658;51.456;7.622;2023-02-28T07:31:09;14.07;;;12.63;;
15114;SDS011;7658;51.456;7.622;2023-02-28T07:33:35;16.57;;;12.83;;
15114;SDS011;7658;51.456;7.622;2023-02-28T07:36:02;13.87;;;12.47;;
15114;SDS011;7658;51.456;7.622;2023-02-28T07:38:30;16.33;;;13.17;;
15114;SDS011;7658;51.456;7.622;2023-02-28T07:40:56;14.17;;;12.83;;
15114;SDS011;7658;51.456;7.622;2023-02-28T07:43:21;14.43;;;13.03;;
15114;SDS011;7658;51.456;7.622;2023-02-28T07:45:47;14.53;;;13.10;;
15114;SDS011;7658;51.456;7.622;2023-02-28T07:48:13;15.33;;;13.83;;
15114;SDS011;7658;51.456;7.622;2023-02-28T07:50:39;15.60;;;12.80;;
15114;SDS011;7658;51.456;7.622;2023-02-28T07:53:04;14.90;;;13.53;;
15114;SDS011;7658;51.456;7.622;2023-02-28T07:55:30;16.30;;;13.30;;
15114;SDS011;7658;51.456;7.622;2023-02-28T07:57:56;15.50;;;13.50;;
15114;SDS011;7658;51.456;7.622;2023-02-28T08:00:22;15.17;;;13.63;;
15114;SDS011;7658;51.456;7.622;2023-02-28T08:02:48;15.60;;;14.10;;
15114;SDS011;7658;51.456;7.622;2023-02-28T08:05:14;14.47;;;13.17;;
15114;SDS011;7658;51.456;7.622;2023-02-28T08:07:40;14.23;;;13.03;;
15114;SDS011;7658;51.456;7.622;2023-02-28T08:10:06;14.57;;;13.27;;
15114;SDS011;7658;51.456;7.622;2023-02-28T08:12:33;16.63;;;13.43;;
15114;SDS011;7658;51.456;7.622;2023-02-28T08:14:59;13.47;;;12.23;;
15114;SDS011;7658;51.456;7.622;2023-02-28T08:17:25;13.97;;;12.67;;
15114;SDS011;7658;51.456;7.622;2023-02-28T08:19:50;14.60;;;13.17;;
15114;SDS011;7658;51.456;7.622;2023-02-28T08:22:16;14.53;;;13.23;;
15114;SDS011;7658;51.456;7.622;2023-02-28T08:24:42;13.17;;;11.87;;
15114;SDS011;7658;51.456;7.622;2023-02-28T08:27:08;13.97;;;12.57;;
15114;SDS011;7658;51.456;7.622;2023-02-28T08:29:36;12.97;;;11.67;;
15114;SDS011;7658;51.456;7.622;2023-02-28T08:32:03;12.53;;;11.30;;
15114;SDS011;7658;51.456;7.622;2023-02-28T08:34:29;12.80;;;11.70;;
15114;SDS011;7658;51.456;7.622;2023-02-28T08:36:55;13.73;;;12.43;;
15114;SDS011;7658;51.456;7.622;2023-02-28T08:39:20;12.20;;;11.10;;
15114;SDS011;7658;51.456;7.622;2023-02-28T08:41:46;12.50;;;11.40;;
15114;SDS011;7658;51.456;7.622;2023-02-28T08:44:12;18.33;;;11.33;;
15114;SDS011;7658;51.456;7.622;2023-02-28T08:46:38;13.10;;;11.90;;
15114;SDS011;7658;51.456;7.622;2023-02-28T08:49:04;12.03;;;11.00;;
15114;SDS011;7658;51.456;7.622;2023-02-28T08:51:29;12.07;;;10.87;;
15114;SDS011;7658;51.456;7.622;2023-02-28T08:53:58;12.53;;;11.23;;
15114;SDS011;7658;51.456;7.622;2023-02-28T08:56:25;12.60;;;11.27;;
15114;SDS011;7658;51.456;7.622;2023-02-28T08:58:53;11.63;;;10.53;;
15114;SDS011;7658;51.456;7.622;2023-02-28T09:01:29;12.07;;;11.03;;
15114;SDS011;7658;51.456;7.622;2023-02-28T09:03:56;12.67;;;11.17;;
15114;SDS011;7658;51.456;7.622;2023-02-28T09:06:23;14.77;;;11.40;;
15114;SDS011;7658;51.456;7.622;2023-02-28T09:08:50;11.93;;;10.80;;
15114;SDS011;7658;51.456;7.622;2023-02-28T09:11:16;12.10;;;11.00;;
15114;SDS011;7658;51.456;7.622;2023-02-28T09:13:43;11.90;;;10.67;;
15114;SDS011;7658;51.456;7.622;2023-02-28T09:16:10;11.37;;;10.33;;
15114;SDS011;7658;51.456;7.622;2023-02-28T09:18:38;11.57;;;10.43;;
15114;SDS011;7658;51.456;7.622;2023-02-28T09:21:05;11.80;;;10.80;;
15114;SDS011;7658;51.456;7.622;2023-02-28T09:23:32;12.33;;;10.83;;
15114;SDS011;7658;51.456;7.622;2023-02-28T09:25:58;11.70;;;10.70;;
15114;SDS011;7658;51.456;7.622;2023-02-28T09:28:24;12.23;;;11.03;;
15114;SDS011;7658;51.456;7.622;2023-02-28T09:30:51;11.40;;;10.50;;
15114;SDS011;7658;51.456;7.622;2023-02-28T09:33:20;11.53;;;10.43;;
15114;SDS011;7658;51.456;7.622;2023-02-28T09:35:47;14.23;;;11.40;;
15114;SDS011;7658;51.456;7.622;2023-02-28T09:38:13;11.93;;;10.93;;
15114;SDS011;7658;51.456;7.622;2023-02-28T09:40:43;11.83;;;10.77;;
15114;SDS011;7658;51.456;7.622;2023-02-28T09:43:15;12.73;;;11.37;;
15114;SDS011;7658;51.456;7.622;2023-02-28T09:45:44;12.50;;;11.30;;
15114;SDS011;7658;51.456;7.622;2023-02-28T09:48:24;11.67;;;10.50;;
15114;SDS011;7658;51.456;7.622;2023-02-28T09:50:55;13.77;;;11.20;;
15114;SDS011;7658;51.456;7.622;2023-02-28T09:53:28;10.87;;;9.97;;
15114;SDS011;7658;51.456;7.622;2023-02-28T10:10:02;9.27;;;8.60;;
15114;SDS011;7658;51.456;7.622;2023-02-28T10:12:39;9.00;;;8.20;;
15114;SDS011;7658;51.456;7.622;2023-02-28T10:15:08;9.13;;;8.33;;
15114;SDS011;7658;51.456;7.622;2023-02-28T10:17:42;9.17;;;8.20;;
15114;SDS011;7658;51.456;7.622;2023-02-28T10:20:14;8.93;;;8.13;;
15114;SDS011;7658;51.456;7.622;2023-02-28T10:25:23;8.50;;;7.90;;
15114;SDS011;7658;51.456;7.622;2023-02-28T10:28:00;8.47;;;7.77;;
15114;SDS011;7658;51.456;7.622;2023-02-28T10:30:34;8.03;;;7.53;;
15114;SDS011;7658;51.456;7.622;2023-02-28T10:33:03;7.90;;;7.37;;
15114;SDS011;7658;51.456;7.622;2023-02-28T10:35:29;8.10;;;7.50;;
15114;SDS011;7658;51.456;7.622;2023-02-28T10:37:56;8.23;;;7.53;;
15114;SDS011;7658;51.456;7.622;2023-02-28T10:45:28;8.27;;;7.60;;
15114;SDS011;7658;51.456;7.622;2023-02-28T10:50:52;8.47;;;7.87;;
15114;SDS011;7658;51.456;7.622;2023-02-28T11:03:57;7.63;;;7.13;;
15114;SDS011;7658;51.456;7.622;2023-02-28T11:06:26;8.33;;;7.63;;
15114;SDS011;7658;51.456;7.622;2023-02-28T11:11:45;7.53;;;6.90;;
15114;SDS011;7658;51.456;7.622;2023-02-28T11:14:22;7.70;;;7.00;;
15114;SDS011;7658;51.456;7.622;2023-02-28T11:16:51;7.70;;;7.20;;
15114;SDS011;7658;51.456;7.622;2023-02-28T11:19:25;7.90;;;7.30;;
15114;SDS011;7658;51.456;7.622;2023-02-28T11:21:55;7.80;;;7.20;;
15114;SDS011;7658;51.456;7.622;2023-02-28T11:26:52;8.30;;;7.60;;
15114;SDS011;7658;51.456;7.622;2023-02-28T11:29:28;8.37;;;7.77;;
15114;SDS011;7658;51.456;7.622;2023-02-28T11:34:46;7.90;;;7.30;;
15114;SDS011;7658;51.456;7.622;2023-02-28T11:37:25;8.03;;;7.43;;
15114;SDS011;7658;51.456;7.622;2023-02-28T11:39:53;7.90;;;7.30;;
15114;SDS011;7658;51.456;7.622;2023-02-28T11:44:53;7.63;;;6.93;;
15114;SDS011;7658;51.456;7.622;2023-02-28T12:05:15;7.50;;;6.83;;
15114;SDS011;7658;51.456;7.622;2023-02-28T12:11:06;8.83;;;6.97;;
15114;SDS011;7658;51.456;7.622;2023-02-28T12:19:20;9.43;;;7.37;;
15114;SDS011;7658;51.456;7.622;2023-02-28T12:27:47;7.03;;;6.43;;
15114;SDS011;7658;51.456;7.622;2023-02-28T12:30:25;7.47;;;6.77;;
15114;SDS011;7658;51.456;7.622;2023-02-28T12:33:07;8.10;;;7.33;;
15114;SDS011;7658;51.456;7.622;2023-02-28T12:35:38;7.37;;;6.80;;
15114;SDS011;7658;51.456;7.622;2023-02-28T12:38:13;7.50;;;6.90;;
15114;SDS011;7658;51.456;7.622;2023-02-28T12:43:15;6.93;;;6.43;;
15114;SDS011;7658;51.456;7.622;2023-02-28T12:48:09;7.53;;;6.93;;
15114;SDS011;7658;51.456;7.622;2023-02-28T12:50:39;7.23;;;6.60;;
15114;SDS011;7658;51.456;7.622;2023-02-28T12:53:06;7.57;;;6.87;;
15114;SDS011;7658;51.456;7.622;2023-02-28T12:58:54;6.70;;;6.10;;
15114;SDS011;7658;51.456;7.622;2023-02-28T13:09:59;7.50;;;6.70;;
15114;SDS011;7658;51.456;7.622;2023-02-28T13:12:27;7.10;;;6.50;;
15114;SDS011;7658;51.456;7.622;2023-02-28T13:17:56;8.07;;;6.80;;
15114;SDS011;7658;51.456;7.622;2023-02-28T13:20:33;6.90;;;6.30;;
15114;SDS011;7658;51.456;7.622;2023-02-28T13:23:01;7.13;;;6.53;;
15114;SDS011;7658;51.456;7.622;2023-02-28T13:27:59;6.60;;;6.10;;
15114;SDS011;7658;51.456;7.622;2023-02-28T13:33:29;7.80;;;7.03;;
15114;SDS011;7658;51.456;7.622;2023-02-28T13:36:06;7.10;;;6.50;;
15114;SDS011;7658;51.456;7.622;2023-02-28T13:38:42;7.43;;;6.73;;
15114;SDS011;7658;51.456;7.622;2023-02-28T13:46:32;6.63;;;6.13;;
15114;SDS011;7658;51.456;7.622;2023-02-28T14:05:29;6.70;;;6.10;;
15114;SDS011;7658;51.456;7.622;2023-02-28T14:07:58;7.00;;;6.40;;
15114;SDS011;7658;51.456;7.622;2023-02-28T14:10:33;7.07;;;6.07;;
15114;SDS011;7658;51.456;7.622;2023-02-28T14:16:20;8.03;;;6.37;;
15114;SDS011;7658;51.456;7.622;2023-02-28T14:18:50;6.60;;;6.10;;
15114;SDS011;7658;51.456;7.622;2023-02-28T14:21:22;6.93;;;6.23;;
15114;SDS011;7658;51.456;7.622;2023-02-28T14:27:07;7.47;;;6.87;;
15114;SDS011;7658;51.456;7.622;2023-02-28T14:38:19;7.13;;;6.53;;
15114;SDS011;7658;51.456;7.622;2023-02-28T14:40:48;7.10;;;6.50;;
15114;SDS011;7658;51.456;7.622;2023-02-28T14:43:19;7.30;;;6.70;;
15114;SDS011;7658;51.456;7.622;2023-02-28T14:45:53;7.67;;;6.93;;
15114;SDS011;7658;51.456;7.622;2023-02-28T14:48:24;8.03;;;7.23;;
15114;SDS011;7658;51.456;7.622;2023-02-28T14:51:01;9.50;;;7.13;;
15114;SDS011;7658;51.456;7.622;2023-02-28T14:53:28;8.10;;;6.60;;
15114;SDS011;7658;51.456;7.622;2023-02-28T14:55:55;6.50;;;6.00;;
15114;SDS011;7658;51.456;7.622;2023-02-28T14:58:25;6.70;;;6.10;;
15114;SDS011;7658;51.456;7.622;2023-02-28T15:00:57;7.00;;;6.40;;
15114;SDS011;7658;51.456;7.622;2023-02-28T15:03:32;10.60;;;6.70;;
15114;SDS011;7658;51.456;7.622;2023-02-28T15:06:04;8.00;;;6.67;;
15114;SDS011;7658;51.456;7.622;2023-02-28T15:08:30;7.30;;;6.60;;
15114;SDS011;7658;51.456;7.622;2023-02-28T15:11:02;7.87;;;6.77;;
15114;SDS011;7658;51.456;7.622;2023-02-28T15:13:36;6.53;;;6.03;;
15114;SDS011;7658;51.456;7.622;2023-02-28T15:21:17;7.90;;;7.10;;
15114;SDS011;7658;51.456;7.622;2023-02-28T15:23:46;7.30;;;6.50;;
15114;SDS011;7658;51.456;7.622;2023-02-28T15:26:20;7.40;;;6.70;;
15114;SDS011;7658;51.456;7.622;2023-02-28T15:28:54;7.70;;;7.00;;
15114;SDS011;7658;51.456;7.622;2023-02-28T15:31:37;7.30;;;6.60;;
15114;SDS011;7658;51.456;7.622;2023-02-28T15:34:13;7.67;;;6.43;;
15114;SDS011;7658;51.456;7.622;2023-02-28T15:36:47;7.37;;;6.60;;
15114;SDS011;7658;51.456;7.622;2023-02-28T15:39:26;7.47;;;6.67;;
15114;SDS011;7658;51.456;7.622;2023-02-28T15:42:16;7.40;;;6.70;;
15114;SDS011;7658;51.456;7.622;2023-02-28T15:44:44;8.20;;;6.70;;
15114;SDS011;7658;51.456;7.622;2023-02-28T15:49:54;7.50;;;6.63;;
15114;SDS011;7658;51.456;7.622;2023-02-28T15:55:16;7.70;;;6.93;;
15114;SDS011;7658;51.456;7.622;2023-02-28T15:57:43;7.73;;;6.77;;
15114;SDS011;7658;51.456;7.622;2023-02-28T16:00:12;7.37;;;6.60;;
15114;SDS011;7658;51.456;7.622;2023-02-28T16:02:40;7.20;;;6.60;;
15114;SDS011;7658;51.456;7.622;2023-02-28T16:07:32;7.90;;;7.07;;
15114;SDS011;7658;51.456;7.622;2023-02-28T16:09:58;7.83;;;7.03;;
15114;SDS011;7658;51.456;7.622;2023-02-28T16:12:26;8.63;;;6.73;;
15114;SDS011;7658;51.456;7.622;2023-02-28T16:14:54;7.07;;;6.40;;
15114;SDS011;7658;51.456;7.622;2023-02-28T16:17:22;8.30;;;6.70;;
15114;SDS011;7658;51.456;7.622;2023-02-28T16:19:51;7.53;;;6.73;;
15114;SDS011;7658;51.456;7.622;2023-02-28T16:22:16;6.87;;;6.27;;
15114;SDS011;7658;51.456;7.622;2023-02-28T16:24:42;9.70;;;6.73;;
15114;SDS011;7658;51.456;7.622;2023-02-28T16:27:15;8.27;;;6.73;;
15114;SDS011;7658;51.456;7.622;2023-02-28T16:29:41;7.10;;;6.40;;
15114;SDS011;7658;51.456;7.622;2023-02-28T16:32:10;8.50;;;6.90;;
15114;SDS011;7658;51.456;7.622;2023-02-28T16:34:38;7.77;;;7.07;;
15114;SDS011;7658;51.456;7.622;2023-02-28T16:37:07;9.00;;;7.03;;
15114;SDS011;7658;51.456;7.622;2023-02-28T16:39:39;8.43;;;7.63;;
15114;SDS011;7658;51.456;7.622;2023-02-28T16:42:06;7.60;;;6.90;;
15114;SDS011;7658;51.456;7.622;2023-02-28T16:44:35;7.70;;;7.00;;
15114;SDS011;7658;51.456;7.622;2023-02-28T16:47:02;7.70;;;7.00;;
15114;SDS011;7658;51.456;7.622;2023-02-28T16:49:29;10.63;;;7.00;;
15114;SDS011;7658;51.456;7.622;2023-02-28T16:51:55;6.93;;;6.27;;
15114;SDS011;7658;51.456;7.622;2023-02-28T16:54:21;7.47;;;6.77;;
15114;SDS011;7658;51.456;7.622;2023-02-28T16:56:48;7.73;;;7.13;;
15114;SDS011;7658;51.456;7.622;2023-02-28T16:59:15;8.07;;;7.37;;
15114;SDS011;7658;51.456;7.622;2023-02-28T17:01:50;7.20;;;6.60;;
15114;SDS011;7658;51.456;7.622;2023-02-28T17:04:16;8.37;;;7.60;;
15114;SDS011;7658;51.456;7.622;2023-02-28T17:06:42;9.50;;;7.60;;
15114;SDS011;7658;51.456;7.622;2023-02-28T17:09:19;7.87;;;7.10;;
15114;SDS011;7658;51.456;7.622;2023-02-28T17:11:47;7.90;;;7.10;;
15114;SDS011;7658;51.456;7.622;2023-02-28T17:14:14;8.83;;;7.93;;
15114;SDS011;7658;51.456;7.622;2023-02-28T17:16:40;9.37;;;8.10;;
15114;SDS011;7658;51.456;7.622;2023-02-28T17:19:09;15.40;;;12.37;;
15114;SDS011;7658;51.456;7.622;2023-02-28T17:21:39;26.67;;;16.27;;
15114;SDS011;7658;51.456;7.622;2023-02-28T17:24:07;20.27;;;14.77;;
15114;SDS011;7658;51.456;7.622;2023-02-28T17:26:33;11.43;;;9.37;;
15114;SDS011;7658;51.456;7.622;2023-02-28T17:28:59;8.43;;;7.60;;
15114;SDS011;7658;51.456;7.622;2023-02-28T17:31:25;12.40;;;9.93;;
15114;SDS011;7658;51.456;7.622;2023-02-28T17:33:52;8.63;;;7.73;;
15114;SDS011;7658;51.456;7.622;2023-02-28T17:36:25;10.10;;;9.10;;
15114;SDS011;7658;51.456;7.622;2023-02-28T17:38:52;28.13;;;16.37;;
15114;SDS011;7658;51.456;7.622;2023-02-28T17:41:20;34.93;;;20.83;;
15114;SDS011;7658;51.456;7.622;2023-02-28T17:43:46;39.33;;;29.27;;
15114;SDS011;7658;51.456;7.622;2023-02-28T17:46:21;19.77;;;15.97;;
15114;SDS011;7658;51.456;7.622;2023-02-28T17:48:48;12.83;;;11.13;;
15114;SDS011;7658;51.456;7.622;2023-02-28T17:51:16;24.57;;;12.70;;
15114;SDS011;7658;51.456;7.622;2023-02-28T17:53:43;33.63;;;20.47;;
15114;SDS011;7658;51.456;7.622;2023-02-28T17:56:19;59.77;;;36.73;;
15114;SDS011;7658;51.456;7.622;2023-02-28T17:58:48;38.70;;;26.30;;
15114;SDS011;7658;51.456;7.622;2023-02-28T18:01:14;29.20;;;19.80;;
15114;SDS011;7658;51.456;7.622;2023-02-28T18:03:41;12.23;;;11.03;;
15114;SDS011;7658;51.456;7.622;2023-02-28T18:06:08;14.17;;;12.70;;
15114;SDS011;7658;51.456;7.622;2023-02-28T18:08:57;19.80;;;17.70;;
15114;SDS011;7658;51.456;7.622;2023-02-28T18:11:23;17.00;;;15.23;;
15114;SDS011;7658;51.456;7.622;2023-02-28T18:13:51;19.07;;;15.03;;
15114;SDS011;7658;51.456;7.622;2023-02-28T18:16:18;13.83;;;11.50;;
15114;SDS011;7658;51.456;7.622;2023-02-28T18:18:46;15.17;;;12.63;;